Time;durP1;ratioP1;P1;durP2;ratioP2;P2;SDS_P1;SDS_P2;PMS_P1;PMS_P2;Temp;Humidity;BMP_temperature;BMP_pressure;BME280_temperature;BME280_humidity;BME280_pressure;Samples;Min_cycle;Max_cycle;Signal;HPM_P1;HPM_P2
2024/02/12 00:02:03;;;;;;;2.97;2.10;;;;;;;11.49;53.82;95824.94;5033103;28;20454;-70
2024/02/12 00:04:28;;;;;;;3.67;2.83;;;;;;;11.45;53.89;95833.38;5030336;28;20188;-70
2024/02/12 00:06:57;;;;;;;5.77;4.13;;;;;;;11.31;54.22;95835.13;5030245;28;20422;-70
2024/02/12 00:09:26;;;;;;;5.07;3.53;;;;;;;11.26;54.48;95833.06;5032544;28;20426;-69
2024/02/12 00:11:54;;;;;;;6.23;3.57;;;;;;;11.37;54.25;95843.03;5033096;28;20513;-69
2024/02/12 00:14:22;;;;;;;3.57;2.70;;;;;;;11.47;54.34;95836.63;5030081;28;20465;-70
2024/02/12 00:16:47;;;;;;;2.80;2.30;;;;;;;11.49;53.97;95834.63;5031929;28;20868;-70
2024/02/12 00:19:12;;;;;;;2.93;1.90;;;;;;;11.42;54.46;95834.59;5030085;28;20517;-69
2024/02/12 00:21:43;;;;;;;2.73;2.00;;;;;;;11.52;54.39;95837.69;5036385;28;20286;-70
2024/02/12 00:24:09;;;;;;;1.67;1.57;;;;;;;11.60;54.27;95841.97;5032839;28;20231;-69
2024/02/12 00:26:35;;;;;;;2.00;1.20;;;;;;;11.59;53.79;95844.81;5030921;28;20811;-70
2024/02/12 00:29:01;;;;;;;1.80;1.70;;;;;;;11.57;54.18;95833.69;5029647;28;20513;-69
2024/02/12 00:31:26;;;;;;;2.40;1.40;;;;;;;11.60;54.44;95833.28;5035703;28;20207;-69
2024/02/12 00:33:54;;;;;;;2.20;1.17;;;;;;;11.63;54.35;95825.84;5037980;28;20203;-71
2024/02/12 00:36:20;;;;;;;2.40;1.33;;;;;;;11.72;53.54;95839.59;5028599;28;20276;-69
2024/02/12 00:38:46;;;;;;;1.07;0.97;;;;;;;11.74;53.99;95839.44;5037480;28;20501;-71
2024/02/12 00:41:14;;;;;;;1.40;1.20;;;;;;;11.69;54.37;95837.38;5029534;28;20199;-70
2024/02/12 00:43:43;;;;;;;6.90;1.20;;;;;;;11.65;54.81;95841.41;5029470;28;20207;-69
2024/02/12 00:46:10;;;;;;;1.60;1.40;;;;;;;11.60;54.74;95841.16;5032155;28;20462;-70
2024/02/12 00:48:36;;;;;;;1.93;1.67;;;;;;;11.55;54.71;95838.31;5032590;28;20427;-71
2024/02/12 00:51:02;;;;;;;1.80;1.20;;;;;;;11.60;55.18;95839.34;5040416;28;20477;-70
2024/02/12 00:53:28;;;;;;;1.30;1.00;;;;;;;11.63;54.99;95840.78;5042360;28;20477;-69
2024/02/12 00:55:55;;;;;;;2.00;0.90;;;;;;;11.67;54.60;95842.81;5028868;28;20176;-71
2024/02/12 00:58:22;;;;;;;1.83;0.80;;;;;;;11.70;54.71;95841.63;5034261;28;20426;-70
2024/02/12 01:00:47;;;;;;;1.77;0.87;;;;;;;11.73;54.77;95846.47;5024110;28;20455;-70
2024/02/12 01:03:14;;;;;;;1.30;0.90;;;;;;;11.73;54.40;95846.47;5036915;28;21011;-70
2024/02/12 01:05:41;;;;;;;2.03;1.00;;;;;;;11.77;54.81;95846.94;5029506;28;20603;-70
2024/02/12 01:08:07;;;;;;;1.50;0.93;;;;;;;11.71;54.62;95853.75;5031086;28;20431;-70
2024/02/12 01:10:33;;;;;;;1.33;0.90;;;;;;;11.70;55.19;95853.94;5033567;28;20978;-68
2024/02/12 01:12:58;;;;;;;1.30;0.90;;;;;;;11.71;54.79;95852.94;5035596;28;20442;-70
2024/02/12 01:15:24;;;;;;;1.70;1.07;;;;;;;11.72;54.99;95855.34;5038333;28;20285;-68
2024/02/12 01:17:50;;;;;;;1.93;1.10;;;;;;;11.61;55.13;95858.50;5029149;28;20198;-69
2024/02/12 01:20:17;;;;;;;2.40;1.00;;;;;;;11.65;54.94;95854.50;5028578;28;20295;-70
2024/02/12 01:22:42;;;;;;;1.97;1.10;;;;;;;11.72;55.03;95857.97;5031285;28;20608;-70
2024/02/12 01:25:08;;;;;;;1.60;1.20;;;;;;;11.65;55.14;95867.63;5020936;28;20503;-70
2024/02/12 01:27:34;;;;;;;3.00;1.20;;;;;;;11.72;55.12;95870.31;5026965;28;20176;-70
2024/02/12 01:29:59;;;;;;;1.23;0.80;;;;;;;11.70;54.87;95862.63;5027690;28;20192;-70
2024/02/12 01:32:25;;;;;;;1.30;1.07;;;;;;;11.67;55.57;95855.13;5032738;28;20195;-69
2024/02/12 01:34:51;;;;;;;2.20;1.17;;;;;;;11.58;55.78;95853.66;5026415;28;20211;-68
2024/02/12 01:37:17;;;;;;;1.97;0.90;;;;;;;11.59;56.09;95855.28;5027436;28;20458;-69
2024/02/12 01:39:42;;;;;;;1.87;1.20;;;;;;;11.58;55.68;95854.47;5036765;28;20179;-69
2024/02/12 01:42:12;;;;;;;1.30;0.93;;;;;;;11.59;56.03;95858.72;5029968;28;20624;-70
2024/02/12 01:45:17;;;;;;;2.00;1.00;;;;;;;11.67;55.96;95863.00;5032117;28;20667;-68
2024/02/12 01:47:46;;;;;;;1.63;0.90;;;;;;;11.65;55.83;95862.38;5022912;28;20532;-70
2024/02/12 01:50:12;;;;;;;2.03;0.80;;;;;;;11.64;55.49;95861.59;5028889;28;20923;-69
2024/02/12 01:52:39;;;;;;;1.30;1.00;;;;;;;11.66;55.78;95862.19;5034185;28;20963;-68
2024/02/12 01:55:06;;;;;;;2.37;0.80;;;;;;;11.70;55.69;95864.44;5028178;28;20426;-70
2024/02/12 01:57:33;;;;;;;1.83;0.83;;;;;;;11.65;55.42;95865.00;5031374;28;20425;-68
2024/02/12 02:00:00;;;;;;;1.57;0.93;;;;;;;11.61;55.48;95861.97;5028073;28;20543;-70
2024/02/12 02:02:26;;;;;;;1.07;0.90;;;;;;;11.67;55.87;95865.63;5028333;28;21202;-70
2024/02/12 02:04:53;;;;;;;1.10;1.00;;;;;;;11.69;55.52;95866.25;5028495;28;20513;-69
2024/02/12 02:07:19;;;;;;;1.10;0.87;;;;;;;11.64;55.55;95869.47;5030518;28;20425;-69
2024/02/12 02:09:48;;;;;;;1.00;0.80;;;;;;;11.55;56.04;95875.03;5032972;28;20445;-70
2024/02/12 02:12:14;;;;;;;4.03;1.00;;;;;;;11.55;55.36;95869.78;5027814;28;20204;-69
2024/02/12 02:14:42;;;;;;;1.30;1.03;;;;;;;11.44;56.01;95869.31;5027928;28;20465;-69
2024/02/12 02:17:09;;;;;;;2.40;1.03;;;;;;;11.47;55.83;95874.16;5027975;28;20431;-70
2024/02/12 02:19:34;;;;;;;2.00;1.00;;;;;;;11.53;56.01;95869.97;5027877;28;20770;-70
2024/02/12 02:22:01;;;;;;;2.23;0.80;;;;;;;11.53;56.16;95869.97;5027582;28;20476;-69
2024/02/12 02:24:26;;;;;;;0.93;0.70;;;;;;;11.57;55.77;95878.28;5026479;28;20337;-68
2024/02/12 02:26:52;;;;;;;2.50;0.90;;;;;;;11.61;55.85;95880.34;5035707;28;20509;-69
2024/02/12 02:29:18;;;;;;;1.20;0.87;;;;;;;11.42;55.99;95884.44;5028187;28;20195;-68
2024/02/12 02:31:44;;;;;;;1.43;0.77;;;;;;;11.55;56.18;95880.28;5043460;28;20790;-68
2024/02/12 02:34:09;;;;;;;1.97;1.17;;;;;;;11.60;55.88;95883.13;5027066;28;20207;-69
2024/02/12 02:36:35;;;;;;;1.57;1.10;;;;;;;11.59;56.09;95876.28;5021038;28;20203;-68
2024/02/12 02:39:03;;;;;;;2.90;1.07;;;;;;;11.59;56.21;95882.34;5028888;28;20184;-69
2024/02/12 02:41:28;;;;;;;1.73;0.90;;;;;;;11.50;56.42;95878.22;5030393;28;20261;-70
2024/02/12 02:43:54;;;;;;;1.53;1.00;;;;;;;11.59;56.03;95871.03;5031989;28;20442;-70
2024/02/12 02:46:26;;;;;;;3.87;0.97;;;;;;;11.42;56.02;95881.81;5031208;28;20226;-70
2024/02/12 02:48:52;;;;;;;1.77;1.17;;;;;;;11.41;56.58;95882.81;5032042;28;20257;-69
2024/02/12 02:51:26;;;;;;;2.30;1.00;;;;;;;11.46;56.29;95884.84;5040006;28;20533;-69
2024/02/12 02:53:52;;;;;;;1.30;0.77;;;;;;;11.56;56.15;95887.94;5042306;28;20473;-70
2024/02/12 02:56:17;;;;;;;1.37;0.90;;;;;;;11.52;56.42;95882.28;5031610;28;20426;-70
2024/02/12 02:58:42;;;;;;;1.00;0.80;;;;;;;11.40;56.62;95899.53;5031802;28;20180;-70
2024/02/12 03:01:10;;;;;;;1.33;0.90;;;;;;;11.40;56.75;95894.28;5031261;28;20338;-70
2024/02/12 03:03:35;;;;;;;1.30;1.03;;;;;;;11.46;56.63;95901.41;5030546;28;20203;-69
2024/02/12 03:06:03;;;;;;;3.00;0.97;;;;;;;11.51;56.77;95893.78;5029263;28;20479;-70
2024/02/12 03:08:34;;;;;;;5.53;1.17;;;;;;;11.47;56.86;95900.41;5039234;28;20203;-71
2024/02/12 03:11:01;;;;;;;1.30;0.80;;;;;;;11.50;56.83;95904.47;5040587;28;20422;-69
2024/02/12 03:13:27;;;;;;;1.83;1.00;;;;;;;11.43;56.92;95899.16;5039631;28;20434;-69
2024/02/12 03:15:53;;;;;;;2.53;0.80;;;;;;;11.55;56.69;95906.53;5030556;28;20512;-70
2024/02/12 03:18:20;;;;;;;3.00;1.10;;;;;;;11.47;56.95;95916.13;5031198;28;20485;-69
2024/02/12 03:20:51;;;;;;;2.17;1.43;;;;;;;11.56;56.50;95916.81;5037091;28;20549;-70
2024/02/12 03:23:17;;;;;;;1.90;1.00;;;;;;;11.63;56.18;95920.31;5033533;28;20473;-69
2024/02/12 03:25:42;;;;;;;2.13;1.10;;;;;;;11.64;56.27;95926.38;5031050;28;20422;-70
2024/02/12 03:28:07;;;;;;;1.00;0.80;;;;;;;11.52;56.37;95929.50;5039325;28;20188;-72
2024/02/12 03:30:33;;;;;;;1.67;0.83;;;;;;;11.63;56.43;95924.75;5030827;28;20206;-71
2024/02/12 03:33:02;;;;;;;1.73;0.80;;;;;;;11.63;56.64;95927.38;5031093;28;20247;-70
2024/02/12 03:35:30;;;;;;;1.20;0.77;;;;;;;11.67;56.32;95937.28;5033808;28;20822;-70
2024/02/12 03:37:58;;;;;;;1.43;0.87;;;;;;;11.64;56.75;95937.69;5032889;28;21021;-70
2024/02/12 03:40:28;;;;;;;2.10;0.80;;;;;;;11.72;56.56;95939.34;5032724;28;20848;-69
2024/02/12 03:42:53;;;;;;;1.17;0.70;;;;;;;11.64;56.29;95942.09;5030761;28;20473;-70
2024/02/12 03:45:19;;;;;;;0.87;0.67;;;;;;;11.70;56.16;95940.53;5033332;28;20422;-71
2024/02/12 03:47:46;;;;;;;1.43;0.80;;;;;;;11.72;56.25;95949.84;5030914;28;20254;-70
2024/02/12 04:01:21;;;;;;;0.93;0.80;;;;;;;11.67;56.33;95957.47;5028031;28;20461;-71
2024/02/12 04:03:49;;;;;;;1.10;0.80;;;;;;;11.47;56.64;95955.47;5030758;28;20437;-70
2024/02/12 04:06:15;;;;;;;1.73;1.00;;;;;;;11.52;56.00;95961.00;5030683;28;20501;-69
2024/02/12 04:08:42;;;;;;;0.90;0.70;;;;;;;11.51;56.49;95961.19;5032029;28;20429;-69
2024/02/12 04:11:11;;;;;;;1.10;0.73;;;;;;;11.49;56.29;95968.44;5043704;28;20418;-69
2024/02/12 04:13:37;;;;;;;2.23;0.90;;;;;;;11.51;56.33;95969.84;5030805;28;20962;-69
2024/02/12 04:16:06;;;;;;;1.13;1.03;;;;;;;11.34;56.27;95965.88;5038631;28;21008;-70
2024/02/12 04:18:34;;;;;;;2.80;1.07;;;;;;;11.27;56.75;95981.56;5041946;28;22347;-69
2024/02/12 04:21:02;;;;;;;1.53;0.90;;;;;;;11.07;57.19;95986.59;5031180;28;20423;-69
2024/02/12 04:23:27;;;;;;;0.90;0.70;;;;;;;11.20;57.02;95976.25;5032691;28;20423;-69
2024/02/12 04:25:53;;;;;;;0.97;0.70;;;;;;;11.18;57.18;95982.66;5030947;28;20430;-69
2024/02/12 04:28:20;;;;;;;1.87;0.90;;;;;;;11.26;56.40;95993.03;5028377;28;20617;-70
2024/02/12 04:30:46;;;;;;;1.13;0.70;;;;;;;11.23;56.91;95996.03;5034502;28;20535;-68
2024/02/12 04:33:12;;;;;;;0.90;0.70;;;;;;;11.28;56.47;95984.97;5026176;28;21139;-68
2024/02/12 04:35:37;;;;;;;1.10;0.77;;;;;;;11.32;56.67;96002.78;5032167;28;20436;-69
2024/02/12 04:38:03;;;;;;;1.70;0.93;;;;;;;11.41;56.18;96000.84;5034959;28;20187;-68
2024/02/12 04:40:29;;;;;;;0.90;0.70;;;;;;;11.34;56.37;96005.22;5029923;28;20279;-68
2024/02/12 04:42:56;;;;;;;1.10;1.00;;;;;;;11.27;56.24;96010.41;5032259;28;20573;-70
2024/02/12 04:45:21;;;;;;;1.13;0.87;;;;;;;11.38;56.10;96009.09;5028683;28;20180;-69
2024/02/12 04:47:49;;;;;;;1.10;0.70;;;;;;;11.41;55.84;96016.59;5029536;28;20959;-69
2024/02/12 04:50:15;;;;;;;3.77;1.00;;;;;;;11.47;56.38;96018.44;5032201;28;20180;-68
2024/02/12 04:52:40;;;;;;;1.10;0.77;;;;;;;11.52;56.00;96017.91;5032023;28;21082;-69
2024/02/12 04:55:07;;;;;;;1.10;0.90;;;;;;;11.52;55.93;96023.97;5033859;28;20179;-69
2024/02/12 04:57:32;;;;;;;2.20;0.97;;;;;;;11.50;55.80;96025.16;5027514;28;20218;-69
2024/02/12 04:59:58;;;;;;;0.90;0.73;;;;;;;11.50;55.69;96020.69;5028775;28;20455;-69
2024/02/12 05:02:23;;;;;;;1.60;0.90;;;;;;;11.47;55.96;96022.91;5027719;28;20278;-70
2024/02/12 05:04:50;;;;;;;1.40;1.07;;;;;;;11.43;56.14;96024.25;5029130;28;20187;-69
2024/02/12 05:07:16;;;;;;;1.27;0.83;;;;;;;11.37;56.24;96013.53;5028784;28;20226;-69
2024/02/12 05:09:42;;;;;;;1.27;1.17;;;;;;;11.39;56.32;96021.19;5027979;28;20422;-70
2024/02/12 05:12:08;;;;;;;1.30;1.00;;;;;;;11.47;56.11;96023.69;5035121;28;20418;-71
2024/02/12 05:14:33;;;;;;;1.40;1.00;;;;;;;11.28;56.62;96019.06;5028097;28;20191;-71
2024/02/12 05:17:03;;;;;;;1.97;1.00;;;;;;;11.35;56.19;96026.00;5028382;28;20712;-71
2024/02/12 05:24:58;;;;;;;2.03;1.40;;;;;;;11.35;56.46;96036.50;5030469;28;20433;-68
2024/02/12 05:27:24;;;;;;;2.90;1.17;;;;;;;11.39;56.06;96033.50;5033681;28;20509;-69
2024/02/12 05:29:51;;;;;;;4.57;1.40;;;;;;;11.42;56.14;96039.19;5032598;28;20823;-70
2024/02/12 05:32:19;;;;;;;1.87;1.10;;;;;;;11.33;55.79;96040.31;5028944;28;20428;-69
2024/02/12 05:34:47;;;;;;;1.17;1.07;;;;;;;11.35;56.24;96049.63;5026632;28;20436;-69
2024/02/12 05:37:12;;;;;;;1.97;1.10;;;;;;;11.30;55.95;96040.69;5034732;28;20428;-70
2024/02/12 05:39:38;;;;;;;2.20;1.17;;;;;;;11.15;56.20;96044.16;5027496;28;20415;-68
2024/02/12 05:42:04;;;;;;;1.70;1.20;;;;;;;11.20;56.20;96049.66;5029487;28;20204;-69
2024/02/12 05:44:38;;;;;;;2.33;1.50;;;;;;;11.19;56.51;96050.66;5028431;28;20939;-69
2024/02/12 05:47:05;;;;;;;1.97;1.40;;;;;;;11.21;56.33;96048.66;5036375;28;20502;-70
2024/02/12 05:49:33;;;;;;;1.77;1.60;;;;;;;11.26;56.01;96044.66;5030830;28;20473;-70
2024/02/12 05:51:59;;;;;;;2.10;1.53;;;;;;;11.27;56.22;96051.53;5027640;28;20530;-69
2024/02/12 05:54:25;;;;;;;2.50;1.73;;;;;;;11.25;56.03;96053.53;5035620;28;20438;-69
2024/02/12 05:56:51;;;;;;;2.00;1.60;;;;;;;11.25;55.79;96054.34;5026677;28;20430;-69
2024/02/12 05:59:16;;;;;;;2.83;2.07;;;;;;;11.27;56.13;96054.16;5035854;28;20419;-70
2024/02/12 06:01:42;;;;;;;1.90;1.70;;;;;;;11.30;56.06;96053.78;5035477;28;20207;-70
2024/02/12 06:04:08;;;;;;;2.20;1.73;;;;;;;11.33;56.23;96056.06;5026555;28;20199;-70
2024/02/12 06:06:38;;;;;;;2.20;2.00;;;;;;;11.31;56.32;96058.03;5035780;28;20931;-71
2024/02/12 06:09:03;;;;;;;2.10;1.90;;;;;;;11.34;55.94;96062.94;5049671;28;20438;-70
2024/02/12 06:11:29;;;;;;;3.50;1.97;;;;;;;11.36;55.87;96071.41;5029256;28;20428;-69
2024/02/12 06:13:54;;;;;;;2.77;2.53;;;;;;;11.31;55.99;96084.28;5032267;28;20762;-67
2024/02/12 06:16:20;;;;;;;2.90;1.80;;;;;;;11.31;56.02;96079.84;5025578;28;20251;-68
2024/02/12 06:18:46;;;;;;;3.20;1.90;;;;;;;11.34;56.09;96089.16;5026823;28;20280;-69
2024/02/12 06:21:12;;;;;;;3.53;2.00;;;;;;;11.36;56.08;96082.72;5029985;28;20170;-70
2024/02/12 06:23:38;;;;;;;2.70;1.97;;;;;;;11.32;55.64;96094.56;5035958;28;20449;-70
2024/02/12 06:26:03;;;;;;;2.20;1.60;;;;;;;11.32;56.08;96099.03;5033784;28;20796;-68
2024/02/12 06:28:29;;;;;;;3.10;2.10;;;;;;;11.25;55.90;96106.81;5026920;28;20184;-68
2024/02/12 06:30:54;;;;;;;6.10;1.77;;;;;;;11.28;55.79;96110.88;5026618;28;20263;-68
2024/02/12 06:33:20;;;;;;;4.30;1.80;;;;;;;11.27;56.24;96106.63;5026309;28;20254;-69
2024/02/12 06:35:46;;;;;;;2.13;1.93;;;;;;;11.24;55.96;96114.84;5027309;28;20502;-69
2024/02/12 06:38:11;;;;;;;2.50;2.10;;;;;;;11.29;56.01;96110.66;5050267;28;20668;-69
2024/02/12 06:40:37;;;;;;;3.40;1.70;;;;;;;11.27;56.21;96114.47;5030239;28;20210;-69
2024/02/12 06:43:04;;;;;;;1.93;1.83;;;;;;;11.27;56.08;96124.97;5037838;28;20866;-69
2024/02/12 06:45:31;;;;;;;3.00;2.20;;;;;;;11.30;55.78;96120.16;5026882;28;20848;-69
2024/02/12 06:47:57;;;;;;;3.10;2.30;;;;;;;11.31;55.95;96116.56;5030166;28;20525;-69
2024/02/12 06:50:23;;;;;;;3.90;2.10;;;;;;;11.34;55.73;96123.25;5031885;28;20518;-69
2024/02/12 06:52:49;;;;;;;2.50;2.30;;;;;;;11.34;55.50;96115.38;5025575;28;20192;-70
2024/02/12 06:55:15;;;;;;;2.70;2.00;;;;;;;11.37;55.37;96117.63;5025327;28;20270;-70
2024/02/12 06:57:42;;;;;;;3.77;1.97;;;;;;;11.31;54.86;96118.38;5033561;28;20241;-69
2024/02/12 07:00:08;;;;;;;4.13;2.67;;;;;;;11.29;54.98;96128.22;5031662;28;20421;-69
2024/02/12 07:02:35;;;;;;;3.13;2.23;;;;;;;11.12;55.43;96128.41;5025392;28;20454;-70
2024/02/12 07:05:03;;;;;;;2.57;1.70;;;;;;;11.06;54.97;96137.81;5027234;28;20959;-71
2024/02/12 07:07:30;;;;;;;2.53;2.27;;;;;;;11.19;55.17;96139.81;5027300;28;20432;-69
2024/02/12 07:09:57;;;;;;;2.57;1.50;;;;;;;11.22;54.94;96139.44;5027544;28;20426;-68
2024/02/12 07:12:22;;;;;;;2.30;1.50;;;;;;;11.21;54.62;96148.28;5033658;28;20410;-70
2024/02/12 07:14:47;;;;;;;3.83;1.90;;;;;;;11.19;54.81;96145.06;5028898;28;20501;-69
2024/02/12 07:17:13;;;;;;;1.80;1.70;;;;;;;11.14;54.97;96142.16;5033051;28;20282;-71
2024/02/12 07:19:45;;;;;;;4.10;2.10;;;;;;;11.11;54.78;96146.97;5024918;28;20187;-70
2024/02/12 07:22:11;;;;;;;2.47;1.83;;;;;;;10.94;55.29;96151.56;5029594;28;20230;-70
2024/02/12 07:24:36;;;;;;;2.70;1.87;;;;;;;11.01;55.19;96162.97;5027150;28;20553;-70
2024/02/12 07:27:02;;;;;;;3.10;2.27;;;;;;;11.02;55.11;96167.22;5031757;28;20187;-70
2024/02/12 07:29:28;;;;;;;3.37;2.37;;;;;;;11.10;55.42;96167.09;5030453;28;20222;-69
2024/02/12 07:31:53;;;;;;;2.93;2.00;;;;;;;11.21;55.09;96171.91;5030324;28;20878;-70
2024/02/12 07:34:19;;;;;;;2.97;2.20;;;;;;;11.25;55.17;96176.78;5029068;28;20610;-71
2024/02/12 07:36:44;;;;;;;1.90;1.80;;;;;;;11.20;55.02;96183.41;5034127;28;20206;-69
2024/02/12 07:39:11;;;;;;;2.10;1.90;;;;;;;11.22;54.99;96191.09;5030587;28;20180;-69
2024/02/12 07:41:39;;;;;;;2.83;1.90;;;;;;;11.37;55.12;96194.53;5033717;28;20236;-70
2024/02/12 07:44:05;;;;;;;2.53;2.20;;;;;;;11.38;54.86;96200.56;5041926;28;20446;-70
2024/02/12 07:46:31;;;;;;;2.33;1.93;;;;;;;11.44;54.75;96194.59;5041812;28;20747;-70
2024/02/12 07:48:57;;;;;;;2.10;2.00;;;;;;;11.44;55.04;96201.66;5038016;28;20649;-71
2024/02/12 07:51:23;;;;;;;3.03;2.17;;;;;;;11.38;55.33;96197.94;5035399;28;20424;-69
2024/02/12 07:53:48;;;;;;;4.30;1.90;;;;;;;11.45;55.21;96205.91;5029941;28;20230;-70
2024/02/12 07:56:14;;;;;;;3.80;1.90;;;;;;;11.47;54.92;96203.91;5034854;28;20237;-71
2024/02/12 07:58:39;;;;;;;2.80;2.07;;;;;;;11.50;55.10;96198.31;5036571;28;20187;-69
2024/02/12 08:01:05;;;;;;;2.20;2.00;;;;;;;11.46;54.87;96203.13;5030750;28;20187;-69
2024/02/12 08:03:30;;;;;;;4.93;2.10;;;;;;;11.47;54.72;96209.16;5038045;28;20238;-69
2024/02/12 08:05:56;;;;;;;2.33;1.60;;;;;;;11.52;54.53;96212.88;5036544;28;20180;-68
2024/02/12 08:08:21;;;;;;;2.40;1.50;;;;;;;11.51;54.55;96213.88;5036167;28;20175;-69
2024/02/12 08:10:47;;;;;;;1.67;1.43;;;;;;;11.51;54.68;96221.72;5032936;28;20721;-68
2024/02/12 08:13:13;;;;;;;2.17;1.60;;;;;;;11.47;54.41;96224.91;5034655;28;20249;-69
2024/02/12 08:15:39;;;;;;;1.47;1.37;;;;;;;11.35;54.52;96217.50;5029324;28;20779;-68
2024/02/12 08:18:06;;;;;;;1.60;1.37;;;;;;;11.24;54.06;96231.06;5035354;28;20176;-68
2024/02/12 08:20:34;;;;;;;1.50;1.40;;;;;;;11.31;54.12;96229.34;5031007;28;20422;-70
2024/02/12 08:23:00;;;;;;;1.73;1.40;;;;;;;11.39;54.34;96233.69;5034246;28;20457;-70
2024/02/12 08:25:26;;;;;;;1.70;1.30;;;;;;;11.52;54.04;96233.06;5034810;28;20426;-70
2024/02/12 08:27:53;;;;;;;2.60;1.30;;;;;;;11.40;53.81;96230.06;5029626;28;20588;-69
2024/02/12 08:30:19;;;;;;;2.47;1.23;;;;;;;11.64;53.54;96236.03;5030520;28;20430;-69
2024/02/12 08:32:44;;;;;;;1.30;1.20;;;;;;;11.61;53.63;96236.38;5030681;28;20443;-68
2024/02/12 08:35:10;;;;;;;1.20;1.10;;;;;;;11.64;53.48;96236.84;5040324;28;20182;-69
2024/02/12 08:37:35;;;;;;;1.87;1.50;;;;;;;11.64;53.65;96239.47;5033116;28;20314;-69
2024/02/12 08:40:04;;;;;;;8.30;1.53;;;;;;;11.77;53.27;96246.69;5035395;28;20554;-69
2024/02/12 08:42:30;;;;;;;1.10;1.00;;;;;;;11.79;52.93;96255.19;5035231;28;20223;-70
2024/02/12 08:44:56;;;;;;;1.70;1.50;;;;;;;11.80;53.18;96256.00;5032404;28;20517;-70
2024/02/12 08:47:21;;;;;;;1.57;1.47;;;;;;;11.78;53.26;96261.44;5038709;28;20423;-70
2024/02/12 08:49:47;;;;;;;1.70;1.40;;;;;;;11.67;53.33;96256.66;5034561;28;20707;-70
2024/02/12 08:52:14;;;;;;;1.30;1.00;;;;;;;11.77;52.91;96259.81;5031536;28;20195;-70
2024/02/12 08:54:40;;;;;;;2.30;1.30;;;;;;;11.82;53.23;96262.72;5027826;28;20183;-69
2024/02/12 08:57:11;;;;;;;1.77;1.40;;;;;;;11.84;52.91;96273.03;5037266;28;20414;-70
2024/02/12 08:59:38;;;;;;;1.80;1.27;;;;;;;11.97;52.45;96275.00;5044362;28;20481;-69
2024/02/12 09:02:04;;;;;;;1.50;1.40;;;;;;;12.04;52.61;96275.91;5028297;28;20486;-70
2024/02/12 09:04:30;;;;;;;3.73;1.70;;;;;;;12.04;52.66;96275.91;5036799;28;20446;-70
2024/02/12 09:06:55;;;;;;;2.63;1.70;;;;;;;12.08;52.63;96277.19;5031174;28;20429;-69
2024/02/12 09:09:21;;;;;;;1.47;1.30;;;;;;;12.12;52.44;96281.06;5029746;28;20183;-69
2024/02/12 09:11:46;;;;;;;1.70;1.60;;;;;;;12.24;51.90;96284.03;5030221;28;20247;-69
2024/02/12 09:14:12;;;;;;;6.90;1.43;;;;;;;12.38;52.00;96284.16;5029885;28;20883;-68
2024/02/12 09:16:39;;;;;;;1.50;1.40;;;;;;;12.44;51.29;96281.63;5028941;28;20257;-70
2024/02/12 09:19:05;;;;;;;1.50;1.40;;;;;;;12.58;51.55;96289.63;5029784;28;20652;-69
2024/02/12 09:21:31;;;;;;;2.17;1.40;;;;;;;12.52;51.13;96277.22;5045157;28;20462;-70
2024/02/12 09:23:57;;;;;;;1.80;1.50;;;;;;;12.68;50.77;96287.50;5037196;28;20441;-69
2024/02/12 09:26:22;;;;;;;3.17;1.93;;;;;;;12.52;51.28;96285.94;5027833;28;20433;-70
2024/02/12 09:28:47;;;;;;;4.70;1.57;;;;;;;12.67;51.00;96282.41;5035560;28;20316;-69
2024/02/12 09:31:13;;;;;;;2.43;1.70;;;;;;;12.74;51.10;96289.38;5028816;28;20267;-70
2024/02/12 09:33:38;;;;;;;2.13;1.30;;;;;;;12.65;50.96;96287.88;5028371;28;20290;-69
2024/02/12 09:36:05;;;;;;;1.60;1.50;;;;;;;12.67;51.81;96288.50;5027557;28;20210;-71
2024/02/12 09:38:30;;;;;;;8.33;1.40;;;;;;;12.62;51.89;96290.06;5034634;28;20175;-70
2024/02/12 09:40:57;;;;;;;2.13;1.30;;;;;;;12.73;51.75;96302.72;5032354;28;20430;-69
2024/02/12 09:43:24;;;;;;;2.20;1.37;;;;;;;12.82;51.56;96300.78;5027696;28;20207;-70
2024/02/12 09:45:54;;;;;;;1.53;1.43;;;;;;;12.86;51.88;96305.47;5028100;28;20418;-70
2024/02/12 09:48:20;;;;;;;2.83;2.10;;;;;;;12.93;51.79;96305.53;5024844;28;20533;-70
2024/02/12 09:50:49;;;;;;;2.10;1.60;;;;;;;12.89;50.79;96309.53;5028499;28;20955;-70
2024/02/12 09:53:16;;;;;;;9.70;2.13;;;;;;;12.96;50.47;96297.25;5027316;28;20282;-70
2024/02/12 09:55:45;;;;;;;3.10;1.70;;;;;;;13.06;49.83;96303.00;5031301;28;20480;-70
2024/02/12 09:58:12;;;;;;;4.10;1.80;;;;;;;13.11;49.29;96309.50;5031417;28;20459;-70
2024/02/12 10:00:37;;;;;;;3.90;1.77;;;;;;;13.18;49.54;96310.38;5027240;28;20426;-69
2024/02/12 10:03:03;;;;;;;2.60;1.80;;;;;;;13.16;48.93;96320.28;5041077;28;20462;-71
2024/02/12 10:05:29;;;;;;;2.10;1.90;;;;;;;13.24;48.75;96328.00;5044207;28;20182;-70
2024/02/12 10:07:56;;;;;;;4.33;1.73;;;;;;;13.26;48.58;96322.59;5048050;28;20457;-71
2024/02/12 10:10:22;;;;;;;3.77;1.87;;;;;;;13.29;48.81;96323.00;5048010;28;20434;-71
2024/02/12 10:12:51;;;;;;;3.80;2.20;;;;;;;13.30;48.35;96329.06;5051982;28;20435;-71
2024/02/12 10:15:20;;;;;;;3.93;1.83;;;;;;;13.34;48.72;96327.69;5050156;28;20186;-71
2024/02/12 10:17:47;;;;;;;3.93;1.97;;;;;;;13.35;48.81;96334.59;5040792;28;20438;-70
2024/02/12 10:20:13;;;;;;;5.07;1.80;;;;;;;13.29;48.86;96330.91;5028995;28;21006;-70
2024/02/12 10:22:39;;;;;;;1.93;1.73;;;;;;;13.26;48.75;96328.63;5033076;28;20549;-70
2024/02/12 10:25:06;;;;;;;2.33;1.53;;;;;;;13.23;48.59;96330.84;5025062;28;20180;-71
2024/02/12 10:27:32;;;;;;;1.60;1.50;;;;;;;13.19;48.58;96333.06;5025678;28;20410;-69
2024/02/12 10:30:01;;;;;;;2.93;1.80;;;;;;;13.16;48.59;96334.25;5027201;28;20419;-68
2024/02/12 10:32:27;;;;;;;2.20;2.00;;;;;;;13.11;48.38;96327.91;5027422;28;20180;-69
2024/02/12 10:34:53;;;;;;;3.90;1.80;;;;;;;13.09;48.69;96332.56;5026858;28;20422;-68
2024/02/12 10:37:20;;;;;;;2.67;2.10;;;;;;;13.08;49.13;96336.19;5028961;28;20857;-70
2024/02/12 10:39:46;;;;;;;2.00;1.80;;;;;;;13.10;49.18;96339.47;5026507;28;20426;-70
2024/02/12 10:42:14;;;;;;;2.30;1.90;;;;;;;13.13;48.96;96344.31;5030198;28;20446;-70
2024/02/12 10:44:40;;;;;;;2.07;1.80;;;;;;;13.12;48.28;96342.69;5033680;28;20731;-70
2024/02/12 10:47:09;;;;;;;2.27;1.67;;;;;;;13.10;48.52;96340.25;5030345;28;20421;-71
2024/02/12 10:49:38;;;;;;;3.57;1.70;;;;;;;13.16;48.93;96343.94;5037966;28;20175;-70
2024/02/12 10:52:04;;;;;;;4.93;1.87;;;;;;;13.15;49.18;96337.88;5028559;28;20430;-70
2024/02/12 10:54:29;;;;;;;2.10;1.63;;;;;;;13.17;49.43;96337.69;5031777;28;20938;-70
2024/02/12 10:56:55;;;;;;;2.20;1.87;;;;;;;13.21;49.77;96341.56;5032650;28;20476;-69
2024/02/12 10:59:20;;;;;;;2.03;1.80;;;;;;;13.28;49.69;96339.78;5026520;28;20191;-70
2024/02/12 11:01:49;;;;;;;2.67;2.10;;;;;;;13.25;49.37;96345.44;5034136;28;20188;-70
2024/02/12 11:04:15;;;;;;;2.40;1.87;;;;;;;13.25;49.60;96334.91;5036792;28;20250;-69
2024/02/12 11:06:41;;;;;;;3.70;2.00;;;;;;;13.32;48.87;96342.84;5038376;28;20420;-71
2024/02/12 11:09:09;;;;;;;2.73;2.20;;;;;;;13.27;48.69;96342.63;5032160;28;20418;-71
2024/02/12 11:11:46;;;;;;;2.67;1.73;;;;;;;13.27;48.55;96340.78;5038621;28;20763;-71
2024/02/12 11:14:14;;;;;;;1.80;1.50;;;;;;;13.27;48.32;96347.88;5031361;28;20449;-70
2024/02/12 11:16:40;;;;;;;3.20;1.43;;;;;;;13.32;48.33;96343.69;5036555;28;20426;-74
2024/02/12 11:19:13;;;;;;;2.00;1.70;;;;;;;13.35;48.64;96343.31;5032603;28;20449;-69
2024/02/12 11:21:39;;;;;;;2.43;2.00;;;;;;;13.31;48.39;96347.31;5031869;28;20868;-70
2024/02/12 11:24:05;;;;;;;6.13;1.77;;;;;;;13.32;48.52;96345.47;5039149;28;20438;-69
2024/02/12 11:26:48;;;;;;;3.93;1.70;;;;;;;13.34;48.39;96352.22;5024521;28;20219;-70
2024/02/12 11:29:16;;;;;;;2.07;1.67;;;;;;;13.33;48.08;96350.56;5028429;28;20426;-70
2024/02/12 11:31:50;;;;;;;2.20;1.70;;;;;;;13.32;48.33;96348.94;5020062;28;20992;-70
2024/02/12 11:34:19;;;;;;;3.60;1.80;;;;;;;13.22;48.75;96343.19;5022902;28;20442;-70
2024/02/12 11:36:57;;;;;;;1.97;1.60;;;;;;;13.16;48.97;96347.41;5025222;28;20417;-70
2024/02/12 11:39:22;;;;;;;3.30;2.10;;;;;;;13.23;49.63;96352.72;5024411;28;20423;-70
2024/02/12 11:41:48;;;;;;;2.70;1.70;;;;;;;13.28;48.92;96347.69;5025468;28;22357;-69
2024/02/12 11:44:14;;;;;;;2.03;1.83;;;;;;;13.30;49.00;96350.94;5022630;28;20204;-70
2024/02/12 11:46:40;;;;;;;1.90;1.43;;;;;;;13.31;48.96;96352.59;5023440;28;20476;-70
2024/02/12 11:49:07;;;;;;;2.33;1.80;;;;;;;13.36;49.01;96352.00;5039301;28;20827;-70